Página principal
METAR-TAF:

METAR-TAF

Aeroportos :

Mendoza, Argentina

Aeroporto Internacional Gobernador Francisco Gabrielli

latitude: 32-50S, longitude: 068-47W, altura: 705 m

Observação actual do tempo

O boletim foi feito há 24 minutos, às 17:00 UTC
Vento 2 kt de oes-sudoeste
Temperatura 8°C
Humidade 93%
Pressão 1022 hPa
Visibilidade: 9000 m
Encobertoa uma altura de 600 ft

METAR: SAME 281700Z 25002KT 9000 OVC006 08/07 Q1022

Hora: 14:24 (17:24 UTC)

Previsão

O boletim foi feito há 6 horas e 24 minutos, às 11:00 UTC
Previsão válida de 28 às 12 UTC a 29 às 12 UTC
Vento kt de norte
Visibilidade: 0100 m
Nuvens dispersasa uma altura de 3000 ft
nevoeiro
Tornando-se
de 28 às 15 UTC a 28 às 17 UTC
Vento 5 kt de sudeste
Visibilidade: 3000 m
Nuvens dispersasa uma altura de 3000 ft
neblina

TAF: SAME 281100Z 2812/2912 00000KT 0100 FG SCT030 TX13/2820Z TN01/2910Z BECMG 2815/2817 14005KT 3000 BR SCT030

Observações e previsões do tempo de mais de 4000 aeroportos (mensagens METAR e TAF).

As estações disponíveis são os pontos amarelos e vermelhos sobre o mapa.

Mova o rato sobre o mapa para ver o nome da estação.

Depois clique no ponto para visualizar as observações e previsões meteorológicas.

Para alterar o mapa : clique nos botões verdes com uma cruz preta para aumentar o zoom; no botão verde com uma pitada de zoom; ou nas setas verdes para mapas adjacentes.


METAR-TAF: